Time;durP1;ratioP1;P1;durP2;ratioP2;P2;SDS_P1;SDS_P2;PMS_P1;PMS_P2;Temp;Humidity;BMP_temperature;BMP_pressure;BME280_temperature;BME280_humidity;BME280_pressure;Samples;Min_cycle;Max_cycle;Signal;HPM_P1;HPM_P2
2022/11/14 00:02:42;;;;;;;11.43;7.07;;;;;;;5.54;72.43;100448.09;10409604;28;20566;-62
2022/11/14 00:07:44;;;;;;;10.32;5.82;;;;;;;5.65;72.58;100443.63;10411413;28;20112;-63
2022/11/14 00:12:46;;;;;;;12.35;6.07;;;;;;;5.68;72.03;100441.50;10409225;28;20104;-62
2022/11/14 00:17:47;;;;;;;8.82;5.95;;;;;;;5.67;71.81;100436.31;10408226;28;20133;-63
2022/11/14 00:22:49;;;;;;;12.65;7.55;;;;;;;5.60;72.08;100440.53;10420333;28;20068;-63
2022/11/14 00:27:50;;;;;;;11.73;6.68;;;;;;;5.61;72.32;100429.72;10410166;28;20247;-61
2022/11/14 00:32:51;;;;;;;12.20;6.07;;;;;;;5.60;71.89;100437.88;10410683;28;20148;-63
2022/11/14 00:37:53;;;;;;;11.48;6.00;;;;;;;5.56;71.98;100424.81;10411058;28;20052;-62
2022/11/14 00:42:54;;;;;;;10.95;5.65;;;;;;;5.52;72.10;100433.25;10412010;28;20136;-63
2022/11/14 00:47:55;;;;;;;10.88;6.63;;;;;;;5.54;71.78;100431.28;10412530;28;20054;-62
2022/11/14 00:52:57;;;;;;;10.93;5.53;;;;;;;5.49;71.98;100423.72;10410691;28;20053;-62
2022/11/14 00:57:58;;;;;;;10.35;5.97;;;;;;;5.45;72.00;100432.09;10408505;28;20072;-62
2022/11/14 01:03:00;;;;;;;9.98;6.05;;;;;;;5.44;71.44;100431.28;10409250;28;20133;-62
2022/11/14 01:08:01;;;;;;;11.65;6.20;;;;;;;5.41;72.44;100409.38;10405619;28;20061;-64
2022/11/14 01:13:02;;;;;;;10.38;5.72;;;;;;;5.38;71.86;100417.69;10409163;28;20053;-62
2022/11/14 01:18:04;;;;;;;11.48;5.55;;;;;;;5.32;72.13;100414.56;10407918;28;20132;-64
2022/11/14 01:23:07;;;;;;;10.00;5.15;;;;;;;5.29;72.47;100408.69;10407710;28;20076;-62
2022/11/14 01:28:14;;;;;;;11.95;6.40;;;;;;;5.34;71.97;100401.13;10406803;28;20124;-62
2022/11/14 01:33:15;;;;;;;;;;;;;;;5.32;72.52;100395.91;10411280;28;20128;-63
2022/11/14 01:38:17;;;;;;;10.02;6.32;;;;;;;5.29;71.97;100382.91;10408945;28;19936;-62
2022/11/14 01:43:18;;;;;;;10.52;6.18;;;;;;;5.26;71.88;100377.84;10406510;28;20049;-62
2022/11/14 01:48:25;;;;;;;10.65;5.20;;;;;;;5.23;72.05;100370.09;10405924;28;20132;-63
2022/11/14 01:53:27;;;;;;;12.80;6.00;;;;;;;5.16;72.23;100359.19;10406230;28;20049;-63
2022/11/14 01:58:30;;;;;;;8.30;5.00;;;;;;;5.14;72.19;100358.47;10411167;28;20135;-62
2022/11/14 02:03:36;;;;;;;11.75;5.75;;;;;;;5.08;72.12;100363.53;10403662;28;20080;-61
2022/11/14 02:08:38;;;;;;;35.35;18.05;;;;;;;5.03;72.39;100355.94;10407380;28;20050;-62
2022/11/14 02:13:40;;;;;;;16.63;9.88;;;;;;;4.96;72.19;100352.19;10394930;28;20106;-62
2022/11/14 02:18:41;;;;;;;13.80;9.07;;;;;;;4.93;72.13;100344.44;10405526;28;20137;-62
2022/11/14 02:23:43;;;;;;;11.35;5.90;;;;;;;4.88;72.54;100342.22;10405037;28;20435;-63
2022/11/14 02:28:44;;;;;;;8.43;4.22;;;;;;;4.85;72.31;100323.00;10406221;28;20072;-64
2022/11/14 02:33:46;;;;;;;5.63;4.47;;;;;;;4.83;72.40;100322.31;10402004;28;20128;-63
2022/11/14 02:38:47;;;;;;;10.60;4.10;;;;;;;4.85;72.69;100323.00;10404876;28;20073;-62
2022/11/14 02:43:48;;;;;;;7.32;4.55;;;;;;;4.87;72.16;100321.03;10402170;28;20468;-62
2022/11/14 02:48:50;;;;;;;9.70;4.38;;;;;;;4.88;72.37;100315.59;10385125;28;20737;-63
2022/11/14 02:53:51;;;;;;;7.85;4.00;;;;;;;4.88;72.17;100314.75;10400287;28;20095;-63
2022/11/14 02:58:53;;;;;;;6.25;3.90;;;;;;;4.88;72.23;100304.09;10387014;28;20099;-64
2022/11/14 03:03:54;;;;;;;8.55;3.97;;;;;;;4.86;72.62;100306.03;10403924;28;20073;-62
2022/11/14 03:08:55;;;;;;;7.20;3.58;;;;;;;4.87;72.17;100305.06;10405186;28;20578;-63
2022/11/14 03:13:59;;;;;;;9.13;4.28;;;;;;;4.83;72.30;100296.50;10405535;28;20088;-62
2022/11/14 03:19:01;;;;;;;8.10;3.35;;;;;;;4.81;72.11;100289.66;10404712;28;20533;-62
2022/11/14 03:24:03;;;;;;;8.23;3.10;;;;;;;4.77;72.44;100281.94;10411268;28;20129;-62
2022/11/14 03:29:04;;;;;;;7.80;3.47;;;;;;;4.71;72.46;100277.16;10411961;28;20073;-62
2022/11/14 03:34:05;;;;;;;5.70;2.58;;;;;;;4.69;72.28;100288.94;10412223;28;20141;-63
2022/11/14 03:39:08;;;;;;;4.30;2.65;;;;;;;4.63;72.43;100282.34;10415858;28;20073;-63
2022/11/14 03:44:09;;;;;;;6.85;2.80;;;;;;;4.62;72.50;100279.81;10410725;28;20069;-62
2022/11/14 03:49:10;;;;;;;6.85;3.15;;;;;;;4.62;72.43;100272.72;10410679;28;20660;-61
2022/11/14 03:54:12;;;;;;;5.25;2.95;;;;;;;4.57;72.28;100269.59;10412036;28;20041;-62
2022/11/14 03:59:13;;;;;;;7.60;3.20;;;;;;;4.57;72.25;100275.75;10403776;28;20103;-62
2022/11/14 04:04:15;;;;;;;5.28;2.38;;;;;;;4.59;72.15;100274.78;10412817;28;20139;-62
2022/11/14 04:09:16;;;;;;;7.25;3.20;;;;;;;4.57;71.91;100275.75;10409156;28;20077;-62
2022/11/14 04:14:18;;;;;;;4.93;2.55;;;;;;;4.56;72.33;100271.44;10409788;28;20120;-62
2022/11/14 04:19:19;;;;;;;5.57;3.10;;;;;;;4.52;72.38;100263.84;10411561;28;20428;-62
2022/11/14 04:24:20;;;;;;;12.43;7.68;;;;;;;4.53;72.20;100268.22;10410749;28;20072;-62
2022/11/14 04:29:22;;;;;;;9.88;5.88;;;;;;;4.49;72.34;100256.16;10410407;28;20072;-62
2022/11/14 04:34:23;;;;;;;14.27;8.82;;;;;;;4.44;72.39;100251.22;10423282;28;20049;-63
2022/11/14 04:39:25;;;;;;;18.77;11.80;;;;;;;4.39;72.45;100245.50;10439976;28;20072;-61
2022/11/14 04:44:26;;;;;;;17.27;9.90;;;;;;;4.38;72.62;100246.47;10442313;28;20103;-60
2022/11/14 04:49:27;;;;;;;14.27;8.45;;;;;;;4.37;72.37;100248.28;10440875;28;20053;-61
2022/11/14 04:54:29;;;;;;;14.32;7.45;;;;;;;4.39;72.66;100261.47;10439611;28;20045;-60
2022/11/14 04:59:30;;;;;;;13.38;8.23;;;;;;;4.39;72.43;100263.28;10442040;28;20373;-61
2022/11/14 05:04:32;;;;;;;11.60;7.05;;;;;;;4.37;72.68;100258.09;10442417;28;20069;-63
2022/11/14 05:09:35;;;;;;;13.60;6.15;;;;;;;4.39;72.47;100248.16;10447764;28;20049;-62
2022/11/14 05:14:36;;;;;;;10.13;5.15;;;;;;;4.42;72.61;100247.88;10453059;28;20049;-64
2022/11/14 05:19:38;;;;;;;9.27;4.53;;;;;;;4.50;72.81;100248.03;10428011;28;20049;-62
2022/11/14 05:24:39;;;;;;;7.47;4.82;;;;;;;4.60;72.87;100242.72;10423185;28;20041;-64
2022/11/14 05:29:41;;;;;;;9.77;5.32;;;;;;;4.73;73.02;100239.75;10446397;28;20037;-64
2022/11/14 05:34:42;;;;;;;10.55;6.18;;;;;;;4.91;72.71;100240.72;10427004;28;20049;-63
2022/11/14 05:39:43;;;;;;;8.40;4.93;;;;;;;5.04;72.89;100242.25;10439415;28;20045;-61
2022/11/14 05:44:45;;;;;;;9.10;5.35;;;;;;;5.19;72.77;100246.13;10440182;28;20284;-62
2022/11/14 05:49:46;;;;;;;9.45;5.30;;;;;;;5.31;72.70;100233.47;10438270;28;20046;-60
2022/11/14 05:54:48;;;;;;;10.70;6.78;;;;;;;5.47;73.04;100241.72;10440483;28;20046;-63
2022/11/14 05:59:49;;;;;;;10.70;5.80;;;;;;;5.53;72.90;100243.81;10445735;28;20056;-63
2022/11/14 06:04:50;;;;;;;9.82;5.57;;;;;;;5.52;72.84;100247.44;10444346;28;20065;-61
2022/11/14 06:09:52;;;;;;;12.48;6.25;;;;;;;5.64;73.07;100247.28;10438590;28;20057;-61
2022/11/14 06:14:53;;;;;;;12.68;7.25;;;;;;;5.81;72.28;100251.00;10438436;28;20052;-63
2022/11/14 06:19:54;;;;;;;13.80;6.90;;;;;;;6.00;72.93;100253.56;10437390;28;20049;-61
2022/11/14 06:24:56;;;;;;;13.05;6.25;;;;;;;6.19;71.99;100251.81;10437373;28;20044;-62
2022/11/14 06:29:57;;;;;;;15.20;7.05;;;;;;;6.31;72.66;100254.09;10439615;28;20076;-64
2022/11/14 06:34:59;;;;;;;13.40;6.55;;;;;;;6.42;72.29;100254.84;10437508;28;20049;-60
2022/11/14 06:40:00;;;;;;;12.57;7.75;;;;;;;6.55;72.62;100252.66;10415898;28;20045;-59
2022/11/14 06:45:01;;;;;;;13.35;7.53;;;;;;;6.67;72.46;100245.25;10414474;28;20065;-60
2022/11/14 06:50:04;;;;;;;23.92;11.23;;;;;;;6.77;72.25;100246.00;10415747;28;20551;-59
2022/11/14 06:55:06;;;;;;;24.33;11.27;;;;;;;6.93;72.06;100229.28;10397642;28;20049;-58
2022/11/14 07:00:08;;;;;;;29.08;14.35;;;;;;;7.05;72.36;100232.53;10418416;28;20060;-59
2022/11/14 07:05:10;;;;;;;36.53;17.92;;;;;;;7.24;72.55;100229.66;10404802;28;20542;-59
2022/11/14 07:10:11;;;;;;;35.53;16.15;;;;;;;7.37;72.81;100221.22;10422226;28;20084;-59
2022/11/14 07:15:12;;;;;;;37.97;16.95;;;;;;;7.57;72.61;100229.03;10408957;28;20107;-59
2022/11/14 07:20:14;;;;;;;31.23;15.48;;;;;;;7.72;72.81;100232.75;10419136;28;20053;-59
2022/11/14 07:25:16;;;;;;;29.80;14.88;;;;;;;7.85;72.89;100224.28;10418702;28;20560;-60
2022/11/14 07:30:17;;;;;;;36.75;16.38;;;;;;;7.97;72.13;100214.13;10423616;28;20419;-59
2022/11/14 07:35:19;;;;;;;34.78;14.63;;;;;;;8.06;72.47;100246.13;10425174;28;20072;-60
2022/11/14 07:40:20;;;;;;;30.40;14.52;;;;;;;8.09;72.77;100259.16;10423301;28;20040;-61
2022/11/14 07:45:21;;;;;;;28.80;13.50;;;;;;;8.14;72.89;100251.50;10417470;28;20045;-59
2022/11/14 07:50:24;;;;;;;31.70;15.45;;;;;;;8.26;72.04;100251.22;10422442;28;20044;-58
2022/11/14 07:55:25;;;;;;;32.92;15.40;;;;;;;8.34;71.80;100254.72;10420321;28;20041;-58
2022/11/14 08:00:27;;;;;;;28.95;13.50;;;;;;;8.43;72.16;100265.50;10422889;28;20049;-58
2022/11/14 08:05:28;;;;;;;31.27;15.50;;;;;;;8.45;72.61;100244.72;10421197;28;20046;-58
2022/11/14 08:10:30;;;;;;;33.47;14.70;;;;;;;8.57;71.84;100238.06;10419443;28;20052;-61
2022/11/14 08:15:34;;;;;;;27.38;14.52;;;;;;;8.69;71.78;100244.78;10419220;28;20043;-62
2022/11/14 08:20:35;;;;;;;29.00;14.63;;;;;;;8.75;71.76;100254.00;10418639;28;20052;-59
2022/11/14 08:25:37;;;;;;;28.67;14.95;;;;;;;8.79;71.87;100251.78;10417459;28;20041;-60
2022/11/14 08:30:38;;;;;;;29.85;14.65;;;;;;;8.80;71.81;100251.63;10387957;28;20567;-58
2022/11/14 08:35:40;;;;;;;32.55;15.13;;;;;;;8.88;71.88;100257.00;10421493;28;20377;-60
2022/11/14 08:40:41;;;;;;;29.55;15.55;;;;;;;8.97;71.66;100252.50;10423476;28;20095;-59
2022/11/14 08:45:43;;;;;;;30.02;13.60;;;;;;;9.03;72.02;100241.09;10419054;28;20069;-58
2022/11/14 08:50:44;;;;;;;28.15;14.60;;;;;;;9.10;72.09;100241.25;10422399;28;20050;-58
2022/11/14 08:55:47;;;;;;;34.08;15.02;;;;;;;9.25;71.86;100236.88;10421306;28;20068;-60
2022/11/14 09:00:50;;;;;;;27.65;13.60;;;;;;;9.27;71.85;100263.53;10417228;28;20053;-60
2022/11/14 09:05:52;;;;;;;27.70;13.98;;;;;;;9.37;71.59;100271.41;10421385;28;20045;-58
2022/11/14 09:10:53;;;;;;;29.55;13.85;;;;;;;9.41;71.79;100275.41;10428494;28;20071;-65
2022/11/14 09:15:55;;;;;;;27.17;13.15;;;;;;;9.41;71.35;100284.28;10436570;28;20455;-64
2022/11/14 09:21:01;;;;;;;30.35;14.15;;;;;;;9.52;71.23;100283.94;10435293;28;20051;-67
2022/11/14 09:26:05;;;;;;;28.60;14.52;;;;;;;9.50;71.65;100274.41;10439395;28;20489;-66
2022/11/14 09:31:09;;;;;;;25.25;13.55;;;;;;;9.60;71.20;100272.34;10437134;28;20049;-68
2022/11/14 09:36:14;;;;;;;25.52;13.52;;;;;;;9.81;70.95;100258.34;10437714;28;20177;-67
2022/11/14 09:41:25;;;;;;;24.20;13.10;;;;;;;9.98;70.69;100253.75;10436255;28;20041;-67
2022/11/14 09:46:40;;;;;;;25.88;12.25;;;;;;;10.06;70.60;100245.66;10433827;28;20037;-65
2022/11/14 09:51:49;;;;;;;22.08;11.60;;;;;;;10.25;70.25;100232.84;10432880;28;20041;-69
2022/11/14 09:56:51;;;;;;;19.52;10.85;;;;;;;10.24;70.19;100242.72;10427746;28;20045;-67
2022/11/14 10:02:11;;;;;;;21.55;12.35;;;;;;;10.37;69.90;100235.94;10419099;28;20099;-67
2022/11/14 10:07:42;;;;;;;18.60;11.05;;;;;;;10.38;69.48;100225.03;10422601;28;20037;-66
2022/11/14 10:13:15;;;;;;;21.52;11.20;;;;;;;10.58;69.14;100213.81;10421751;28;20045;-64
2022/11/14 10:18:51;;;;;;;16.40;8.93;;;;;;;10.70;68.89;100215.06;10410138;28;20064;-65
2022/11/14 10:23:59;;;;;;;14.23;8.60;;;;;;;10.77;68.97;100194.50;10413969;28;20443;-64
2022/11/14 10:29:16;;;;;;;15.15;8.43;;;;;;;10.97;68.33;100199.38;10425322;28;20079;-61
2022/11/14 10:34:29;;;;;;;14.80;8.25;;;;;;;10.86;68.13;100196.13;10416789;28;20049;-66
2022/11/14 10:39:45;;;;;;;15.85;8.80;;;;;;;11.08;67.67;100194.41;10419069;28;20105;-67
2022/11/14 10:44:56;;;;;;;14.18;8.10;;;;;;;11.22;67.57;100182.00;10412967;28;20049;-67
2022/11/14 10:50:11;;;;;;;13.45;7.97;;;;;;;11.34;67.04;100195.81;10408542;28;20077;-67
2022/11/14 10:55:15;;;;;;;16.00;7.75;;;;;;;11.53;67.10;100172.88;10403918;28;20129;-67
2022/11/14 11:00:19;;;;;;;15.18;8.52;;;;;;;11.59;66.57;100165.91;10413866;28;20204;-62
2022/11/14 11:05:26;;;;;;;14.18;7.63;;;;;;;11.73;66.21;100150.75;10430293;28;20057;-64
2022/11/14 11:15:56;;;;;;;12.45;7.72;;;;;;;12.04;66.17;100148.66;10401803;28;20046;-64
2022/11/14 11:21:13;;;;;;;14.75;8.00;;;;;;;12.14;65.54;100134.06;10400704;28;20168;-63
2022/11/14 11:26:27;;;;;;;14.48;7.03;;;;;;;12.41;65.40;100143.25;10405967;28;20045;-62
2022/11/14 11:31:49;;;;;;;11.57;7.45;;;;;;;12.54;65.21;100138.00;10402366;28;20083;-64
2022/11/14 11:37:15;;;;;;;16.25;8.52;;;;;;;12.77;64.84;100121.56;10393585;28;20041;-64
2022/11/14 11:42:28;;;;;;;15.80;7.88;;;;;;;12.85;64.26;100110.63;10394829;28;20045;-63
2022/11/14 11:48:07;;;;;;;11.70;7.43;;;;;;;12.95;64.22;100102.19;10411200;28;20049;-64
2022/11/14 11:53:33;;;;;;;16.55;7.78;;;;;;;13.08;63.80;100093.34;10407132;28;20077;-63
2022/11/14 11:58:43;;;;;;;13.35;8.00;;;;;;;13.19;63.41;100090.09;10409421;28;20406;-64
2022/11/14 12:03:52;;;;;;;12.77;7.65;;;;;;;13.22;63.43;100084.28;10401870;28;20083;-64
2022/11/14 12:09:12;;;;;;;13.70;8.32;;;;;;;13.16;63.26;100085.09;10407131;28;20060;-64
2022/11/14 12:14:33;;;;;;;10.43;6.10;;;;;;;13.26;63.64;100107.13;10404135;28;20948;-65
2022/11/14 12:19:52;;;;;;;8.57;5.28;;;;;;;13.29;62.96;100095.13;10412039;28;20056;-64
2022/11/14 12:25:15;;;;;;;6.70;4.30;;;;;;;13.38;62.54;100090.41;10408297;28;20513;-64
2022/11/14 12:30:20;;;;;;;7.47;4.63;;;;;;;13.52;62.94;100085.91;10416273;28;20124;-63
2022/11/14 12:35:29;;;;;;;7.72;4.22;;;;;;;13.80;62.25;100088.47;10459694;28;20050;-64
2022/11/14 12:40:49;;;;;;;6.57;4.50;;;;;;;13.85;61.87;100081.44;10452950;28;20100;-63
2022/11/14 12:45:50;;;;;;;6.22;3.40;;;;;;;13.96;61.72;100080.03;10441563;28;20060;-63
2022/11/14 12:50:53;;;;;;;9.40;4.00;;;;;;;13.92;62.09;100070.66;10435671;28;20056;-63
2022/11/14 12:56:18;;;;;;;6.53;4.18;;;;;;;13.90;61.76;100067.28;10454361;28;20033;-62
2022/11/14 13:01:41;;;;;;;7.03;3.65;;;;;;;13.86;61.78;100049.84;10444043;28;20430;-65
2022/11/14 13:06:42;;;;;;;5.68;3.33;;;;;;;13.89;61.66;100036.75;10455345;23;20053;-89
2022/11/14 13:22:40;;;;;;;6.15;3.50;;;;;;;13.98;61.29;100033.84;10415890;28;20037;-90
2022/11/14 13:27:42;;;;;;;6.45;3.83;;;;;;;13.84;61.81;100030.28;10403123;28;20044;-90
2022/11/14 13:33:04;;;;;;;5.18;3.90;;;;;;;13.59;62.94;100032.75;10405473;28;20547;-91
2022/11/14 13:38:06;;;;;;;7.00;3.63;;;;;;;13.42;63.78;100024.16;10399059;28;20052;-90
2022/11/14 13:43:17;;;;;;;6.95;3.75;;;;;;;13.37;63.56;100019.38;10389994;28;20042;-90
2022/11/14 13:48:31;;;;;;;8.95;5.47;;;;;;;13.17;64.63;100008.50;10391835;28;20307;-90
2022/11/14 13:53:33;;;;;;;6.25;3.58;;;;;;;13.11;64.85;100001.16;10401159;28;20020;-90
2022/11/14 13:58:44;;;;;;;5.35;3.03;;;;;;;13.08;65.30;99999.72;10403072;28;20045;-89
2022/11/14 14:04:05;;;;;;;7.72;3.60;;;;;;;13.05;65.09;99996.59;10418162;28;20040;-88
2022/11/14 14:09:48;;;;;;;3.67;2.53;;;;;;;13.00;65.39;99993.69;10430495;28;20239;-89
2022/11/14 14:15:18;;;;;;;7.10;3.25;;;;;;;12.94;65.61;99992.59;10385615;28;20045;-90
2022/11/14 14:21:01;;;;;;;4.47;2.95;;;;;;;12.90;65.74;99986.78;10399633;28;20037;-90
2022/11/14 14:26:21;;;;;;;5.95;2.67;;;;;;;12.93;65.95;99973.91;10418288;28;20436;-90
2022/11/14 14:31:23;;;;;;;5.03;3.63;;;;;;;12.93;65.71;99982.00;10409634;28;20145;-89
2022/11/14 14:36:28;;;;;;;4.07;2.80;;;;;;;12.92;65.66;99986.56;10390783;28;20116;-90
2022/11/14 14:41:34;;;;;;;6.22;3.53;;;;;;;12.95;65.65;99980.75;10389839;28;20055;-90
2022/11/14 14:46:36;;;;;;;4.75;2.85;;;;;;;12.97;66.26;99984.09;10386402;28;20056;-90
2022/11/14 14:51:41;;;;;;;4.68;3.10;;;;;;;13.04;66.26;99967.94;10402893;28;20045;-90
2022/11/14 14:56:55;;;;;;;5.60;3.17;;;;;;;13.12;65.77;99965.06;10395538;28;20123;-90
2022/11/14 15:01:57;;;;;;;6.07;3.40;;;;;;;13.14;66.06;99959.47;10385035;28;20066;-89
2022/11/14 15:13:35;;;;;;;5.43;3.05;;;;;;;13.21;65.96;99946.81;10399049;28;20557;-90
2022/11/14 15:18:37;;;;;;;5.13;2.95;;;;;;;13.19;66.14;99944.34;10412197;28;20049;-91
2022/11/14 15:23:40;;;;;;;4.65;2.60;;;;;;;13.26;65.89;99953.28;10433706;28;20033;-90
2022/11/14 15:28:42;;;;;;;7.43;2.97;;;;;;;13.24;65.80;99936.44;10418653;28;20145;-89
2022/11/14 15:33:44;;;;;;;5.45;3.05;;;;;;;13.22;66.31;99935.81;10439274;28;20053;-89
2022/11/14 15:39:04;;;;;;;4.07;2.80;;;;;;;13.21;66.38;99938.72;10440275;28;20041;-87
2022/11/14 15:44:30;;;;;;;4.43;3.05;;;;;;;13.21;66.08;99944.13;10420433;28;20037;-92
2022/11/14 15:49:32;;;;;;;4.57;2.40;;;;;;;13.31;66.13;99946.47;10431362;28;20108;-90
2022/11/14 15:54:36;;;;;;;5.68;3.13;;;;;;;13.29;66.49;99944.81;10426543;28;20045;-91
2022/11/14 15:59:38;;;;;;;4.97;2.42;;;;;;;13.32;66.31;99942.75;10446582;28;20065;-89
2022/11/14 16:04:40;;;;;;;5.55;2.70;;;;;;;13.19;66.82;99941.66;10442657;23;20127;-63
2022/11/14 16:09:48;;;;;;;9.23;3.63;;;;;;;13.27;66.46;99946.84;10409757;28;20041;-64
2022/11/14 16:14:49;;;;;;;6.13;3.20;;;;;;;13.37;66.03;99951.91;10413346;28;20534;-63
2022/11/14 16:19:51;;;;;;;4.93;2.75;;;;;;;13.34;66.65;99946.88;10419305;28;20132;-64
2022/11/14 16:24:52;;;;;;;4.05;2.35;;;;;;;13.28;66.63;99959.31;10411435;28;20141;-62
2022/11/14 16:29:54;;;;;;;3.97;2.42;;;;;;;13.27;67.02;99956.81;10411528;28;20076;-65
2022/11/14 16:34:55;;;;;;;3.72;2.35;;;;;;;13.28;66.82;99955.78;10421124;28;20050;-67
2022/11/14 16:39:56;;;;;;;4.80;2.22;;;;;;;13.27;66.67;99957.66;10421376;28;20108;-66
2022/11/14 16:45:00;;;;;;;3.78;2.28;;;;;;;13.20;66.96;99959.50;10417954;28;20041;-67
2022/11/14 16:50:03;;;;;;;3.80;2.67;;;;;;;13.22;67.08;99970.91;10416559;28;20060;-67
2022/11/14 16:55:07;;;;;;;4.55;3.03;;;;;;;13.24;66.98;99966.13;10412439;28;20061;-67
2022/11/14 17:00:11;;;;;;;5.70;3.15;;;;;;;13.25;66.76;99959.72;10387528;28;20041;-68
2022/11/14 17:05:13;;;;;;;6.82;3.05;;;;;;;13.15;67.29;99969.22;10416227;28;20045;-67
2022/11/14 17:10:15;;;;;;;6.63;4.10;;;;;;;13.15;67.24;99971.91;10413104;28;20065;-70
2022/11/14 17:15:16;;;;;;;7.00;3.40;;;;;;;13.16;67.08;99984.41;10408922;28;20069;-68
2022/11/14 17:20:17;;;;;;;7.70;3.55;;;;;;;12.98;67.61;99988.47;10405938;28;20046;-68
2022/11/14 17:25:19;;;;;;;8.68;4.28;;;;;;;13.05;67.47;99985.78;10400368;28;20046;-70
2022/11/14 17:30:21;;;;;;;10.25;4.30;;;;;;;13.06;67.11;99995.56;10417546;28;20096;-69
2022/11/14 17:35:22;;;;;;;7.35;4.38;;;;;;;13.04;67.62;99990.38;10407398;28;20037;-67
2022/11/14 17:40:24;;;;;;;11.40;5.18;;;;;;;13.01;67.50;99979.13;10409400;28;20073;-66
2022/11/14 17:45:25;;;;;;;7.97;4.85;;;;;;;13.02;67.50;99980.81;10418432;28;20490;-67
2022/11/14 17:50:26;;;;;;;9.05;4.60;;;;;;;13.02;67.20;99983.50;10408439;28;20406;-69
2022/11/14 17:55:32;;;;;;;9.38;4.20;;;;;;;13.10;67.17;99986.03;10408533;28;20053;-67
2022/11/14 18:00:33;;;;;;;7.43;3.88;;;;;;;13.06;67.19;99982.06;10413432;28;20073;-69
2022/11/14 18:05:35;;;;;;;9.18;4.65;;;;;;;13.09;66.82;99987.06;10407316;28;20623;-69
2022/11/14 18:10:37;;;;;;;6.35;3.90;;;;;;;13.10;66.92;99991.44;10413809;28;20049;-70
2022/11/14 18:15:38;;;;;;;8.27;4.88;;;;;;;13.00;67.01;99993.69;10418192;28;20088;-70
2022/11/14 18:20:40;;;;;;;6.10;4.65;;;;;;;13.00;66.84;99991.81;10412515;28;20514;-69
2022/11/14 18:25:41;;;;;;;8.05;4.72;;;;;;;12.92;66.93;99991.16;10414231;28;20041;-69
2022/11/14 18:30:52;;;;;;;6.38;4.28;;;;;;;12.92;67.11;100004.63;10403049;28;20807;-68
2022/11/14 18:35:57;;;;;;;5.75;3.55;;;;;;;12.87;66.79;99999.81;10395130;28;20044;-69
2022/11/14 18:41:00;;;;;;;11.07;3.85;;;;;;;12.82;67.05;99999.59;10394902;28;20054;-68
2022/11/14 18:46:04;;;;;;;8.35;4.15;;;;;;;12.76;67.14;100003.09;10400366;28;20053;-69
2022/11/14 18:51:10;;;;;;;9.13;4.78;;;;;;;12.76;67.45;99995.00;10399999;28;20464;-67
2022/11/14 18:56:15;;;;;;;8.18;4.40;;;;;;;12.82;67.18;100005.00;10400237;28;20323;-68
2022/11/14 19:01:22;;;;;;;8.32;4.70;;;;;;;12.79;67.10;100011.59;10392391;28;20061;-67
2022/11/14 19:06:25;;;;;;;8.73;4.72;;;;;;;12.74;66.84;100010.53;10409257;28;20145;-67
2022/11/14 19:16:46;;;;;;;9.43;5.15;;;;;;;12.62;67.06;100024.59;10393724;28;20085;-68
2022/11/14 19:21:51;;;;;;;10.15;6.03;;;;;;;12.61;67.35;100020.22;10402946;28;20092;-68
2022/11/14 19:26:53;;;;;;;9.38;6.18;;;;;;;12.49;67.54;100016.41;10398084;28;20085;-66
2022/11/14 19:31:54;;;;;;;10.15;5.90;;;;;;;12.47;67.50;100023.84;10411630;28;20068;-67
2022/11/14 19:36:55;;;;;;;17.73;7.30;;;;;;;12.54;67.14;100029.28;10382737;28;20152;-69
2022/11/14 19:42:01;;;;;;;10.80;6.05;;;;;;;12.43;67.46;100022.59;10402689;28;20451;-68
2022/11/14 19:47:03;;;;;;;12.00;6.53;;;;;;;12.38;67.63;100027.72;10408209;28;20072;-67
2022/11/14 19:52:04;;;;;;;13.10;6.75;;;;;;;12.30;68.16;100034.09;10380661;28;20046;-68
2022/11/14 19:57:06;;;;;;;12.35;7.00;;;;;;;12.24;67.99;100027.63;10392594;28;20052;-67
2022/11/14 20:02:12;;;;;;;14.10;8.38;;;;;;;12.21;68.25;100022.63;10401778;28;20140;-67
2022/11/14 20:07:13;;;;;;;17.60;7.88;;;;;;;12.22;68.07;100015.38;10406946;28;20055;-67
2022/11/14 20:12:15;;;;;;;13.32;7.38;;;;;;;12.21;68.48;100013.72;10400673;28;20132;-67
2022/11/14 20:17:16;;;;;;;11.32;7.10;;;;;;;12.12;68.47;100021.09;10401868;28;20050;-67
2022/11/14 20:22:18;;;;;;;15.75;7.40;;;;;;;12.01;68.66;100025.16;10407420;28;20133;-66
2022/11/14 20:27:19;;;;;;;13.48;7.38;;;;;;;11.89;69.21;100021.31;10406403;28;20053;-66
2022/11/14 20:32:21;;;;;;;13.65;7.40;;;;;;;11.88;69.08;100025.00;10409636;28;20132;-66
2022/11/14 20:37:22;;;;;;;12.70;7.50;;;;;;;11.82;69.51;100023.06;10416320;28;20057;-65
2022/11/14 20:42:25;;;;;;;12.52;7.68;;;;;;;11.74;69.54;100024.03;10409905;28;20056;-65
2022/11/14 20:47:27;;;;;;;12.85;7.65;;;;;;;11.74;69.57;100023.19;10416639;28;20085;-67
2022/11/14 20:52:29;;;;;;;12.20;7.57;;;;;;;11.79;69.36;100026.13;10426774;28;20050;-64
2022/11/14 20:57:33;;;;;;;15.98;8.50;;;;;;;11.69;69.46;100013.00;10437744;28;20108;-64
2022/11/14 21:02:35;;;;;;;12.88;7.35;;;;;;;11.64;69.87;100015.44;10437853;28;20037;-64
2022/11/14 21:07:37;;;;;;;14.38;7.43;;;;;;;11.67;69.85;100012.34;10433042;28;20057;-64
2022/11/14 21:12:38;;;;;;;11.32;7.53;;;;;;;11.69;69.89;100018.41;10439204;28;20041;-65
2022/11/14 21:17:39;;;;;;;13.45;8.02;;;;;;;11.76;69.56;100013.06;10427059;28;20049;-65
2022/11/14 21:22:41;;;;;;;14.07;8.35;;;;;;;11.93;68.70;100016.34;10444683;28;20050;-64
2022/11/14 21:27:42;;;;;;;13.35;8.13;;;;;;;11.93;69.21;100017.22;10449409;28;20053;-64
2022/11/14 21:32:43;;;;;;;13.52;8.30;;;;;;;11.95;69.18;100015.16;10423300;28;20041;-63
2022/11/14 21:37:45;;;;;;;13.68;8.05;;;;;;;11.96;68.82;100032.97;10419089;28;20072;-62
2022/11/14 21:42:46;;;;;;;11.68;7.85;;;;;;;11.98;68.58;100028.22;10419962;28;20037;-64
2022/11/14 21:47:47;;;;;;;14.02;8.07;;;;;;;11.96;68.53;100030.28;10444435;28;20053;-65
2022/11/14 21:52:49;;;;;;;14.38;8.77;;;;;;;11.95;68.65;100031.31;10436120;28;20046;-65
2022/11/14 21:57:53;;;;;;;12.35;7.13;;;;;;;11.90;68.92;100037.25;10456141;28;20045;-65
2022/11/14 22:08:19;;;;;;;14.10;9.30;;;;;;;11.86;69.08;100035.94;10448647;28;20037;-63
2022/11/14 22:13:20;;;;;;;20.50;8.60;;;;;;;11.90;68.81;100039.94;10444266;28;20041;-62
2022/11/14 22:18:22;;;;;;;13.13;7.78;;;;;;;11.91;69.08;100043.50;10439174;28;20045;-61
2022/11/14 22:23:23;;;;;;;15.13;8.40;;;;;;;11.90;68.78;100039.94;10428220;28;20045;-61
2022/11/14 22:28:26;;;;;;;16.30;8.80;;;;;;;11.90;68.83;100031.03;10425613;28;20041;-62
2022/11/14 22:33:35;;;;;;;14.77;8.98;;;;;;;11.93;69.06;100038.75;10439187;28;20049;-63
2022/11/14 22:38:37;;;;;;;16.85;8.35;;;;;;;11.87;68.88;100040.31;10449998;28;20041;-62
2022/11/14 22:43:39;;;;;;;17.15;8.30;;;;;;;11.86;69.02;100037.81;10447947;28;20041;-63
2022/11/14 22:48:42;;;;;;;14.82;8.73;;;;;;;11.86;68.96;100024.34;10443153;28;20055;-63
2022/11/14 22:53:52;;;;;;;11.48;7.38;;;;;;;11.86;69.02;100022.47;10453000;28;20042;-64
2022/11/14 22:58:54;;;;;;;14.25;8.13;;;;;;;11.89;69.16;100027.53;10448144;28;20049;-63
2022/11/14 23:03:58;;;;;;;18.30;8.65;;;;;;;11.83;69.27;100054.38;10393036;28;20077;-63
2022/11/14 23:09:01;;;;;;;15.68;8.20;;;;;;;11.73;69.17;100052.00;10409136;28;20060;-65
2022/11/14 23:14:02;;;;;;;21.13;10.30;;;;;;;11.70;69.25;100058.56;10402438;28;20132;-67
2022/11/14 23:19:03;;;;;;;21.30;10.10;;;;;;;11.63;69.62;100049.59;10411033;28;20124;-67
2022/11/14 23:24:09;;;;;;;17.67;9.55;;;;;;;11.51;69.33;100049.25;10401770;28;20120;-67
2022/11/14 23:29:13;;;;;;;18.48;9.82;;;;;;;11.42;69.77;100053.09;10404886;28;20128;-66
2022/11/14 23:34:14;;;;;;;19.10;10.45;;;;;;;11.29;69.90;100048.38;10409202;28;20065;-67
2022/11/14 23:39:15;;;;;;;23.20;10.75;;;;;;;11.14;70.17;100044.03;10407991;28;20050;-66
2022/11/14 23:44:17;;;;;;;14.98;10.05;;;;;;;10.91;70.70;100045.81;10412479;28;20132;-67
2022/11/14 23:49:18;;;;;;;18.77;10.02;;;;;;;10.93;70.49;100037.56;10422250;28;20131;-66
2022/11/14 23:54:19;;;;;;;19.17;10.15;;;;;;;10.89;70.53;100049.69;10415916;28;20538;-67